createdAt,value
2018-12-20T00:03:06.860Z,100677.69
2018-12-20T00:05:39.498Z,100674.80
2018-12-20T00:08:11.949Z,100676.00
2018-12-20T00:10:42.616Z,100681.14
2018-12-20T00:13:12.809Z,100683.25
2018-12-20T00:15:41.426Z,100683.55
2018-12-20T00:18:09.933Z,100680.89
2018-12-20T00:20:38.876Z,100681.33
2018-12-20T00:23:07.374Z,100679.74
2018-12-20T00:28:12.624Z,100680.10
2018-12-20T00:30:41.257Z,100678.83
2018-12-20T00:33:12.087Z,100680.20
2018-12-20T00:35:40.773Z,100675.19
2018-12-20T00:38:09.522Z,100672.58
2018-12-20T00:40:39.355Z,100682.28
2018-12-20T00:43:09.081Z,100673.02
2018-12-20T00:45:39.515Z,100671.44
2018-12-20T00:48:09.206Z,100675.16
2018-12-20T00:50:37.948Z,100676.64
2018-12-20T00:53:07.680Z,100675.21
2018-12-20T00:55:35.876Z,100670.80
2018-12-20T00:58:04.956Z,100671.20
2018-12-20T01:00:33.397Z,100676.17
2018-12-20T01:03:01.688Z,100673.41
2018-12-20T01:05:41.105Z,100671.44
2018-12-20T01:08:12.207Z,100668.78
2018-12-20T01:10:41.640Z,100671.63
2018-12-20T01:13:09.836Z,100673.45
2018-12-20T01:15:39.297Z,100676.05
2018-12-20T01:18:07.954Z,100670.91
2018-12-20T01:20:36.075Z,100677.08
2018-12-20T01:23:04.303Z,100676.59
2018-12-20T01:25:33.075Z,100676.54
2018-12-20T01:28:02.844Z,100672.11
2018-12-20T01:30:33.769Z,100673.45
2018-12-20T01:33:09.223Z,100664.91
2018-12-20T01:35:38.055Z,100660.75
2018-12-20T01:38:06.858Z,100668.80
2018-12-20T01:40:35.516Z,100667.52
2018-12-20T01:43:04.414Z,100665.59
2018-12-20T01:45:32.920Z,100674.26
2018-12-20T01:48:01.542Z,100668.13
2018-12-20T01:50:32.570Z,100670.55
2018-12-20T01:53:00.955Z,100673.34
2018-12-20T01:55:29.980Z,100667.89
2018-12-20T01:57:59.064Z,100674.18
2018-12-20T02:00:28.028Z,100679.09
2018-12-20T02:03:01.710Z,100678.30
2018-12-20T02:05:30.503Z,100676.34
2018-12-20T02:08:05.083Z,100675.08
2018-12-20T02:10:33.378Z,100676.41
2018-12-20T02:13:02.879Z,100676.97
2018-12-20T02:15:31.501Z,100677.34
2018-12-20T02:18:02.508Z,100672.38
2018-12-20T02:20:31.602Z,100682.77
2018-12-20T02:23:00.293Z,100670.69
2018-12-20T02:25:28.529Z,100672.61
2018-12-20T02:27:58.147Z,100665.04
2018-12-20T02:30:27.027Z,100663.41
2018-12-20T02:33:08.882Z,100659.42
2018-12-20T02:38:13.666Z,100659.36
2018-12-20T02:40:41.960Z,100662.76
2018-12-20T02:43:10.356Z,100661.59
2018-12-20T02:45:38.922Z,100664.69
2018-12-20T02:48:07.050Z,100654.22
2018-12-20T02:50:35.224Z,100653.25
2018-12-20T02:53:03.421Z,100646.33
2018-12-20T02:55:32.330Z,100637.44
2018-12-20T02:58:01.626Z,100642.11
2018-12-20T03:00:30.033Z,100638.05
2018-12-20T03:02:58.719Z,100477.19
2018-12-20T03:11:10.299Z,100631.88
2018-12-20T03:13:38.823Z,100629.20
2018-12-20T03:16:07.806Z,100630.76
2018-12-20T03:18:36.122Z,100624.31
2018-12-20T03:21:04.563Z,100625.09
2018-12-20T03:23:36.639Z,100626.50
2018-12-20T03:26:04.842Z,100620.81
2018-12-20T03:28:33.076Z,100626.20
2018-12-20T03:31:02.508Z,100626.97
2018-12-20T03:36:17.108Z,100622.28
2018-12-20T03:38:45.690Z,100620.10
2018-12-20T03:41:14.186Z,100625.38
2018-12-20T03:43:42.802Z,100620.88
2018-12-20T03:46:11.430Z,100555.58
2018-12-20T03:48:41.561Z,100624.90
2018-12-20T03:51:11.222Z,100623.83
2018-12-20T03:53:39.507Z,100625.23
2018-12-20T03:56:08.549Z,100623.68
2018-12-20T03:58:41.774Z,100621.45
2018-12-20T04:03:55.289Z,100624.67
2018-12-20T04:06:23.961Z,100583.02
2018-12-20T04:08:53.862Z,100629.80
2018-12-20T04:11:22.426Z,100624.45
2018-12-20T04:13:50.537Z,100624.23
2018-12-20T04:16:18.992Z,100617.44
2018-12-20T04:18:47.797Z,100622.27
2018-12-20T04:21:18.015Z,100624.60
2018-12-20T04:23:47.053Z,100622.52
2018-12-20T04:26:15.248Z,100626.50
2018-12-20T04:28:44.269Z,100621.78
2018-12-20T04:31:13.059Z,100621.09
2018-12-20T04:33:41.740Z,100631.41
2018-12-20T04:36:13.078Z,100630.91
2018-12-20T04:38:41.604Z,100631.69
2018-12-20T04:41:12.637Z,100633.28
2018-12-20T04:43:44.474Z,100641.56
2018-12-20T04:46:14.124Z,100645.98
2018-12-20T04:48:42.615Z,100642.86
2018-12-20T04:51:10.878Z,100656.04
2018-12-20T04:53:39.439Z,100651.41
2018-12-20T04:56:12.356Z,100647.19
2018-12-20T04:58:41.737Z,100593.86
2018-12-20T05:01:10.334Z,100647.53
2018-12-20T05:03:39.368Z,100641.89
2018-12-20T05:06:09.916Z,100641.05
2018-12-20T05:08:40.288Z,100643.78
2018-12-20T05:11:08.658Z,100641.01
2018-12-20T05:13:37.218Z,100642.65
2018-12-20T05:16:06.221Z,100648.22
2018-12-20T05:18:34.714Z,100652.36
2018-12-20T05:21:03.488Z,100644.52
2018-12-20T05:23:32.807Z,100647.90
2018-12-20T05:26:01.258Z,100647.77
2018-12-20T05:28:32.379Z,100646.93
2018-12-20T05:31:01.803Z,100649.84
2018-12-20T05:33:30.839Z,100651.66
2018-12-20T05:37:51.266Z,100660.86
2018-12-20T05:40:20.897Z,100662.30
2018-12-20T05:42:52.611Z,100664.41
2018-12-20T05:45:25.178Z,100660.02
2018-12-20T05:47:55.783Z,100651.89
2018-12-20T05:50:26.204Z,100665.11
2018-12-20T05:52:55.692Z,100664.94
2018-12-20T05:55:24.845Z,100666.16
2018-12-20T05:57:53.417Z,100668.36
2018-12-20T06:00:21.974Z,100673.95
2018-12-20T06:02:51.266Z,100667.13
2018-12-20T06:05:20.615Z,100666.19
2018-12-20T06:07:50.586Z,100672.27
2018-12-20T06:10:19.763Z,100672.55
2018-12-20T06:12:47.983Z,100677.75
2018-12-20T06:15:17.857Z,100692.45
2018-12-20T06:17:46.397Z,100685.20
2018-12-20T06:20:15.209Z,100690.57
2018-12-20T06:25:00.028Z,100695.01
2018-12-20T06:27:28.290Z,100691.84
2018-12-20T06:29:56.335Z,100691.16
2018-12-20T06:32:25.286Z,100694.27
2018-12-20T06:34:53.799Z,100695.58
2018-12-20T06:37:22.614Z,100694.27
2018-12-20T06:39:52.714Z,100691.53
2018-12-20T06:42:21.680Z,100697.81
2018-12-20T06:48:04.017Z,100697.94
2018-12-20T06:50:33.959Z,100699.55
2018-12-20T06:53:02.437Z,100589.95
2018-12-20T06:55:33.479Z,100702.33
2018-12-20T06:58:03.951Z,100695.80
2018-12-20T07:00:33.303Z,100695.90
2018-12-20T07:03:08.705Z,100700.19
2018-12-20T07:05:37.041Z,100699.58
2018-12-20T07:08:06.986Z,100700.67
2018-12-20T07:10:36.102Z,100700.19
2018-12-20T07:13:05.476Z,100704.00
2018-12-20T07:15:34.609Z,100701.63
2018-12-20T07:18:04.041Z,100699.52
2018-12-20T07:20:57.111Z,100699.11
2018-12-20T07:23:40.397Z,100704.31
2018-12-20T07:26:09.389Z,100708.88
2018-12-20T07:28:37.834Z,100705.24
2018-12-20T07:31:07.138Z,100716.69
2018-12-20T07:33:36.303Z,100716.75
2018-12-20T07:36:18.891Z,100717.80
2018-12-20T07:38:47.959Z,100728.30
2018-12-20T07:41:16.830Z,100723.51
2018-12-20T07:43:45.579Z,100719.39
2018-12-20T07:49:02.753Z,100717.97
2018-12-20T07:51:34.441Z,100724.51
2018-12-20T07:54:06.127Z,100724.51
2018-12-20T07:58:36.990Z,100721.43
2018-12-20T08:01:08.110Z,100721.78
2018-12-20T08:08:28.253Z,100739.58
2018-12-20T08:10:59.488Z,100729.55
2018-12-20T08:13:28.122Z,100669.66
2018-12-20T08:15:58.122Z,100735.66
2018-12-20T08:18:30.983Z,100737.11
2018-12-20T08:21:04.699Z,100735.49
2018-12-20T08:23:38.562Z,100742.27
2018-12-20T08:26:07.461Z,100739.45
2018-12-20T08:28:37.004Z,100737.59
2018-12-20T08:34:09.640Z,100748.31
2018-12-20T08:36:39.883Z,100747.91
2018-12-20T08:39:08.774Z,100749.65
2018-12-20T08:41:37.070Z,100749.10
2018-12-20T08:44:08.055Z,100758.41
2018-12-20T09:29:28.677Z,100784.02
2018-12-20T09:31:57.442Z,100788.02
2018-12-20T09:34:28.289Z,100784.20
2018-12-20T09:36:57.129Z,100793.76
2018-12-20T09:39:27.343Z,100787.25
2018-12-20T09:41:59.624Z,100791.69
2018-12-20T09:44:27.822Z,100787.74
2018-12-20T09:47:11.415Z,100779.27
2018-12-20T09:49:40.097Z,100787.05
2018-12-20T09:52:10.455Z,100789.25
2018-12-20T09:54:39.037Z,100792.78
2018-12-20T09:57:08.371Z,100779.96
2018-12-20T09:59:37.671Z,100787.98
2018-12-20T10:02:10.492Z,100788.75
2018-12-20T10:04:40.041Z,100774.20
2018-12-20T10:07:09.688Z,100777.86
2018-12-20T10:09:41.999Z,100777.34
2018-12-20T10:12:10.943Z,100777.50
2018-12-20T10:14:41.121Z,100777.18
2018-12-20T10:17:19.821Z,100774.27
2018-12-20T10:19:47.529Z,100773.66
2018-12-20T10:22:18.427Z,100768.91
2018-12-20T10:24:51.770Z,100769.42
2018-12-20T10:27:31.243Z,100775.69
2018-12-20T10:29:54.615Z,100770.04
2018-12-20T10:32:23.507Z,100772.02
2018-12-20T10:34:52.275Z,100771.81
2018-12-20T10:37:21.434Z,100777.93
2018-12-20T10:39:52.333Z,100773.12
2018-12-20T10:42:29.726Z,100773.48
2018-12-20T10:45:15.127Z,100766.05
2018-12-20T10:50:31.988Z,100768.22
2018-12-20T10:53:03.186Z,100768.36
2018-12-20T10:55:34.743Z,100762.14
2018-12-20T10:58:04.421Z,100763.95
2018-12-20T11:00:41.263Z,100753.12
2018-12-20T11:03:16.545Z,100756.86
2018-12-20T11:05:50.785Z,100756.46
2018-12-20T11:08:24.508Z,100748.39
2018-12-20T11:13:42.097Z,100752.10
2018-12-20T11:16:11.451Z,100746.84
2018-12-20T11:18:40.815Z,100732.72
2018-12-20T11:21:09.535Z,100742.50
2018-12-20T11:23:40.104Z,100746.69
2018-12-20T11:26:10.387Z,100721.23
2018-12-20T11:28:39.638Z,100729.30
2018-12-20T11:31:11.035Z,100726.64
2018-12-20T11:33:39.869Z,100727.96
2018-12-20T11:36:09.402Z,100719.06
2018-12-20T11:38:38.893Z,100726.98
2018-12-20T11:41:07.193Z,100729.23
2018-12-20T11:43:38.831Z,100727.31
2018-12-20T11:48:02.497Z,100721.29
2018-12-20T11:50:32.818Z,100722.63
2018-12-20T11:53:01.279Z,100721.72
2018-12-20T11:55:33.135Z,100718.36
2018-12-20T11:58:06.004Z,100721.42
2018-12-20T12:00:38.030Z,100721.89
2018-12-20T12:03:09.053Z,100711.83
2018-12-20T12:05:37.178Z,100717.02
2018-12-20T12:08:07.742Z,100718.89
2018-12-20T12:10:36.820Z,100713.34
2018-12-20T12:13:06.694Z,100719.47
2018-12-20T12:15:42.855Z,100713.84
2018-12-20T12:19:12.862Z,100706.55
2018-12-20T12:21:42.281Z,100715.77
2018-12-20T12:24:15.584Z,100707.52
2018-12-20T12:26:45.452Z,100706.98
2018-12-20T12:29:14.362Z,100700.72
2018-12-20T12:31:48.532Z,100709.17
2018-12-20T12:34:16.907Z,100707.95
2018-12-20T12:36:46.416Z,100703.96
2018-12-20T12:39:16.120Z,100713.22
2018-12-20T12:41:45.374Z,100711.73
2018-12-20T12:44:15.843Z,100716.59
2018-12-20T12:47:32.925Z,100723.30
2018-12-20T12:50:03.392Z,100721.32
2018-12-20T12:52:31.795Z,100721.98
2018-12-20T12:55:03.293Z,100730.31
2018-12-20T12:58:44.392Z,100734.98
2018-12-20T13:01:15.610Z,100727.00
2018-12-20T13:03:48.249Z,100719.98
2018-12-20T13:06:18.096Z,100716.91
2018-12-20T13:08:46.188Z,100717.58
2018-12-20T13:11:18.162Z,100711.47
2018-12-20T13:13:46.627Z,100705.45
2018-12-20T13:16:17.510Z,100707.94
2018-12-20T13:18:47.732Z,100704.77
2018-12-20T13:21:24.034Z,100700.27
2018-12-20T13:23:53.004Z,100697.15
2018-12-20T13:26:32.387Z,100700.77
2018-12-20T13:30:22.544Z,100701.29
2018-12-20T13:32:50.988Z,100703.06
2018-12-20T13:35:26.658Z,100715.01
2018-12-20T13:40:40.978Z,100717.30
2018-12-20T13:43:11.575Z,100713.46
2018-12-20T13:47:42.142Z,100712.45
2018-12-20T13:50:13.686Z,100704.64
2018-12-20T13:52:45.202Z,100708.04
2018-12-20T13:55:15.713Z,100705.89
2018-12-20T14:00:16.581Z,100708.06
2018-12-20T14:02:54.229Z,100711.32
2018-12-20T14:05:24.750Z,100706.56
2018-12-20T14:08:06.106Z,100710.89
2018-12-20T14:10:46.673Z,100709.21
2018-12-20T14:13:16.596Z,100712.50
2018-12-20T14:15:49.275Z,100718.39
2018-12-20T14:18:31.154Z,100719.94
2018-12-20T14:21:09.343Z,100718.44
2018-12-20T14:23:41.532Z,100735.34
2018-12-20T14:26:10.620Z,100731.46
2018-12-20T14:28:41.084Z,100736.58
2018-12-20T14:31:14.327Z,100737.20
2018-12-20T14:33:53.130Z,100742.10
2018-12-20T14:36:23.910Z,100737.94
2018-12-20T14:38:52.162Z,100739.20
2018-12-20T14:41:21.903Z,100736.17
2018-12-20T14:43:52.617Z,100734.96
2018-12-20T14:46:22.838Z,100733.14
2018-12-20T14:54:08.532Z,100737.57
2018-12-20T14:56:37.142Z,100740.70
2018-12-20T14:59:20.762Z,100734.55
2018-12-20T15:01:51.520Z,100736.73
2018-12-20T15:04:22.107Z,100734.23
2018-12-20T15:06:55.276Z,100735.39
2018-12-20T15:09:43.062Z,100737.57
2018-12-20T15:12:24.552Z,100744.44
2018-12-20T15:18:04.893Z,100732.67
2018-12-20T15:20:40.772Z,100736.87
2018-12-20T15:23:15.552Z,100737.95
2018-12-20T15:25:53.384Z,100743.06
2018-12-20T15:28:28.187Z,100748.19
2018-12-20T15:31:02.592Z,100748.80
2018-12-20T15:33:33.643Z,100753.22
2018-12-20T15:36:23.827Z,100639.52
2018-12-20T15:39:04.504Z,100757.59
2018-12-20T15:41:40.184Z,100753.58
2018-12-20T15:44:17.754Z,100751.86
2018-12-20T15:46:49.446Z,100758.05
2018-12-20T15:49:26.486Z,100761.52
2018-12-20T15:52:16.025Z,100764.64
2018-12-20T15:54:58.637Z,100763.67
2018-12-20T15:57:32.737Z,100770.58
2018-12-20T16:00:08.423Z,100769.92
2018-12-20T16:03:03.314Z,100764.47
2018-12-20T16:05:44.012Z,100767.52
2018-12-20T16:08:21.772Z,100764.05
2018-12-20T16:11:05.076Z,100779.35
2018-12-20T16:13:46.991Z,100780.08
2018-12-20T16:16:19.257Z,100782.43
2018-12-20T16:18:51.655Z,100786.09
2018-12-20T16:21:21.407Z,100793.37
2018-12-20T16:23:52.520Z,100788.81
2018-12-20T16:26:26.235Z,100787.30
2018-12-20T16:28:59.563Z,100800.88
2018-12-20T16:31:32.826Z,100801.67
2018-12-20T16:34:05.306Z,100787.38
2018-12-20T16:36:36.572Z,100800.88
2018-12-20T16:39:17.345Z,100803.18
2018-12-20T16:41:48.690Z,100814.60
2018-12-20T16:44:26.385Z,100807.32
2018-12-20T16:47:05.633Z,100812.22
2018-12-20T16:52:18.092Z,100818.15
2018-12-20T16:54:54.495Z,100814.23
2018-12-20T17:02:05.667Z,100822.23
2018-12-20T17:04:37.727Z,100823.44
2018-12-20T17:07:09.226Z,100826.35
2018-12-20T17:09:54.783Z,100831.48
2018-12-20T17:12:24.381Z,100816.58
2018-12-20T17:14:55.049Z,100823.58
2018-12-20T17:26:24.866Z,100822.02
2018-12-20T17:28:58.439Z,100818.62
2018-12-20T17:31:27.248Z,100819.15
2018-12-20T17:33:56.836Z,100815.36
2018-12-20T17:36:25.857Z,100819.76
2018-12-20T17:38:56.063Z,100814.56
2018-12-20T17:41:25.506Z,100822.45
2018-12-20T17:44:02.703Z,100822.48
2018-12-20T17:49:46.253Z,100817.48
2018-12-20T17:52:19.004Z,100816.17
2018-12-20T17:54:51.607Z,100812.21
2018-12-20T17:57:30.346Z,100824.52
2018-12-20T18:00:00.372Z,100818.30
2018-12-20T18:02:36.760Z,100825.97
2018-12-20T18:05:24.589Z,100822.91
2018-12-20T18:10:48.045Z,100817.09
2018-12-20T18:13:18.280Z,100809.78
2018-12-20T18:15:47.873Z,100811.33
2018-12-20T18:18:20.161Z,100811.05
2018-12-20T18:21:01.324Z,100815.77
2018-12-20T18:23:31.875Z,100818.66
2018-12-20T18:27:48.667Z,100809.92
2018-12-20T18:30:21.313Z,100813.43
2018-12-20T18:32:49.823Z,100814.27
2018-12-20T18:35:19.984Z,100817.98
2018-12-20T18:37:52.626Z,100814.16
2018-12-20T18:40:23.303Z,100819.96
2018-12-20T18:42:51.604Z,100822.87
2018-12-20T18:45:20.782Z,100822.34
2018-12-20T18:47:51.512Z,100816.21
2018-12-20T18:50:24.677Z,100813.30
2018-12-20T18:52:57.575Z,100818.75
2018-12-20T18:55:30.782Z,100818.91
2018-12-20T18:58:02.084Z,100821.90
2018-12-20T19:00:37.044Z,100822.95
2018-12-20T19:03:07.289Z,100823.48
2018-12-20T19:05:36.982Z,100814.48
2018-12-20T19:08:08.155Z,100834.13
2018-12-20T19:10:38.809Z,100832.42
2018-12-20T19:13:09.818Z,100831.91
2018-12-20T19:15:38.891Z,100823.19
2018-12-20T19:18:12.092Z,100837.67
2018-12-20T19:20:41.498Z,100838.27
2018-12-20T19:23:10.335Z,100832.75
2018-12-20T19:25:38.632Z,100835.97
2018-12-20T19:28:10.353Z,100839.36
2018-12-20T19:30:39.825Z,100840.48
2018-12-20T19:33:09.393Z,100837.83
2018-12-20T19:35:39.400Z,100845.13
2018-12-20T19:38:07.954Z,100837.02
2018-12-20T19:40:44.876Z,100838.75
2018-12-20T19:43:17.041Z,100840.30
2018-12-20T19:45:52.053Z,100837.34
2018-12-20T19:48:25.943Z,100838.08
2018-12-20T19:50:58.103Z,100833.71
2018-12-20T19:53:27.197Z,100846.22
2018-12-20T19:55:59.273Z,100842.79
2018-12-20T19:58:30.799Z,100844.28
2018-12-20T20:01:00.738Z,100835.57
2018-12-20T20:03:31.631Z,100824.72
2018-12-20T20:06:02.646Z,100847.98
2018-12-20T20:08:33.382Z,100839.41
2018-12-20T20:11:02.835Z,100832.63
2018-12-20T20:15:41.667Z,100812.85
2018-12-20T20:18:13.881Z,100812.19
2018-12-20T20:20:51.946Z,100813.69
2018-12-20T20:23:35.865Z,100810.19
2018-12-20T20:26:04.875Z,100814.31
2018-12-20T20:28:34.707Z,100816.89
2018-12-20T20:31:08.380Z,100815.59
2018-12-20T20:33:40.118Z,100810.39
2018-12-20T20:36:18.937Z,100805.84
2018-12-20T20:38:52.539Z,100808.30
2018-12-20T20:41:27.978Z,100759.50
2018-12-20T20:44:00.388Z,100807.15
2018-12-20T20:49:22.256Z,100809.58
2018-12-20T20:51:51.911Z,100810.25
2018-12-20T20:54:28.722Z,100812.86
2018-12-20T20:57:07.495Z,100819.11
2018-12-20T20:59:50.640Z,100825.28
2018-12-20T21:02:16.516Z,100819.49
2018-12-20T21:04:54.480Z,100816.59
2018-12-20T21:07:33.237Z,100821.05
2018-12-20T21:10:02.956Z,100824.36
2018-12-20T21:12:42.433Z,100825.20
2018-12-20T21:15:19.837Z,100823.30
2018-12-20T21:17:50.579Z,100827.28
2018-12-20T21:20:30.625Z,100824.26
2018-12-20T21:22:58.161Z,100823.20
2018-12-20T21:25:47.291Z,100819.41
2018-12-20T21:28:24.278Z,100822.63
2018-12-20T21:33:37.287Z,100818.16
2018-12-20T21:36:09.322Z,100815.06
2018-12-20T21:38:48.294Z,100817.23
2018-12-20T21:41:18.960Z,100820.05
2018-12-20T21:43:50.102Z,100820.38
2018-12-20T21:46:23.296Z,100817.73
2018-12-20T21:48:55.463Z,100813.66
2018-12-20T21:51:25.141Z,100813.39
2018-12-20T21:53:58.446Z,100813.63
2018-12-20T21:56:27.925Z,100803.33
2018-12-20T21:59:01.673Z,100808.17
2018-12-20T22:01:32.452Z,100814.45
2018-12-20T22:04:12.593Z,100815.31
2018-12-20T22:06:44.985Z,100810.06
2018-12-20T22:09:17.794Z,100813.30
2018-12-20T22:11:52.059Z,100818.78
2018-12-20T22:14:26.904Z,100810.37
2018-12-20T22:17:02.882Z,100815.73
2018-12-20T22:19:43.229Z,100810.78
2018-12-20T22:22:15.615Z,100813.13
2018-12-20T22:24:52.043Z,100809.17
2018-12-20T22:27:23.659Z,100814.88
2018-12-20T22:29:55.394Z,100809.86
2018-12-20T22:32:23.873Z,100823.33
2018-12-20T22:34:56.674Z,100816.30
2018-12-20T22:37:30.171Z,100813.94
2018-12-20T22:40:01.095Z,100810.76
2018-12-20T22:42:36.290Z,100811.05
2018-12-20T22:45:16.952Z,100813.50
2018-12-20T22:47:50.871Z,100820.08
2018-12-20T22:50:22.758Z,100818.31
2018-12-20T22:52:53.948Z,100817.73
2018-12-20T22:55:26.087Z,100809.19
2018-12-20T22:57:56.989Z,100798.72
2018-12-20T23:00:26.576Z,100804.39
2018-12-20T23:02:56.543Z,100795.57
2018-12-20T23:05:30.675Z,100795.33
2018-12-20T23:08:03.170Z,100789.63
2018-12-20T23:10:44.679Z,100778.55
2018-12-20T23:13:20.893Z,100782.79
2018-12-20T23:15:51.041Z,100776.73
2018-12-20T23:18:26.144Z,100780.08
2018-12-20T23:26:52.591Z,100761.72
2018-12-20T23:29:23.223Z,100758.09
2018-12-20T23:32:04.863Z,100760.37
2018-12-20T23:34:35.604Z,100753.53
2018-12-20T23:37:06.771Z,100751.96
2018-12-20T23:39:36.590Z,100747.30
2018-12-20T23:42:12.079Z,100746.22
2018-12-20T23:46:39.383Z,100746.15
2018-12-20T23:49:09.677Z,100750.47
2018-12-20T23:51:45.287Z,100761.66
2018-12-20T23:56:35.570Z,100753.23
2018-12-20T23:59:10.631Z,100739.50
